Time;durP1;ratioP1;P1;durP2;ratioP2;P2;SDS_P1;SDS_P2;PMS_P1;PMS_P2;Temp;Humidity;BMP_temperature;BMP_pressure;BME280_temperature;BME280_humidity;BME280_pressure;Samples;Min_cycle;Max_cycle;Signal;HPM_P1;HPM_P2
2022/07/30 00:00:55;;;;;;;12.18;10.98;;;;;;;21.72;49.69;100092.66;4896459;28;101001;-82
2022/07/30 00:03:20;;;;;;;11.45;10.43;;;;;;;21.81;49.70;100113.25;4895083;28;96670;-83
2022/07/30 00:05:46;;;;;;;11.00;10.18;;;;;;;21.82;49.46;100106.97;4897285;28;96920;-83
2022/07/30 00:08:11;;;;;;;11.43;10.30;;;;;;;21.81;49.71;100110.59;4891789;28;101441;-83
2022/07/30 00:10:38;;;;;;;12.93;10.90;;;;;;;21.81;49.80;100113.25;4895953;28;100923;-82
2022/07/30 00:13:03;;;;;;;11.40;10.25;;;;;;;21.78;49.37;100100.16;4896618;28;97093;-83
2022/07/30 00:15:29;;;;;;;10.73;9.77;;;;;;;21.73;49.60;100093.50;4888369;28;97481;-82
2022/07/30 00:17:54;;;;;;;10.98;9.77;;;;;;;21.59;49.57;100073.34;4898507;28;101301;-83
2022/07/30 00:20:20;;;;;;;10.93;10.13;;;;;;;21.78;49.41;100093.97;4900176;28;101636;-83
2022/07/30 00:22:46;;;;;;;10.63;9.70;;;;;;;21.64;49.71;100088.00;4899189;28;96927;-82
2022/07/30 00:25:11;;;;;;;11.15;9.90;;;;;;;21.41;49.69;100046.31;4884092;28;97987;-83
2022/07/30 00:27:36;;;;;;;13.75;11.23;;;;;;;21.66;49.54;100094.03;4882820;28;101776;-82
2022/07/30 00:30:03;;;;;;;13.70;10.30;;;;;;;21.71;49.65;100099.00;4899010;28;101416;-83
2022/07/30 00:32:28;;;;;;;10.70;9.82;;;;;;;21.70;49.56;100090.16;4881363;28;97206;-83
2022/07/30 00:34:54;;;;;;;10.30;9.45;;;;;;;21.69;49.46;100084.91;4899346;28;96927;-83
2022/07/30 00:37:20;;;;;;;11.50;10.55;;;;;;;21.68;49.58;100096.59;4883068;28;101292;-83
2022/07/30 00:39:46;;;;;;;11.43;10.43;;;;;;;21.66;49.53;100096.69;4903529;28;101359;-82
2022/07/30 00:42:11;;;;;;;10.98;9.98;;;;;;;21.52;49.50;100075.66;4896103;28;97335;-83
2022/07/30 00:44:37;;;;;;;11.18;10.20;;;;;;;21.60;49.52;100091.03;4897303;28;97760;-83
2022/07/30 00:47:02;;;;;;;11.10;10.10;;;;;;;21.64;49.47;100088.00;4910574;28;101426;-83
2022/07/30 00:49:28;;;;;;;11.05;10.15;;;;;;;21.54;49.62;100078.19;4905572;28;98113;-82
2022/07/30 00:51:54;;;;;;;11.18;9.98;;;;;;;21.56;49.51;100071.75;4905203;28;98124;-83
2022/07/30 00:54:20;;;;;;;10.82;9.80;;;;;;;21.43;49.44;100052.38;4900999;28;96970;-83
2022/07/30 00:56:46;;;;;;;10.25;9.57;;;;;;;21.60;49.26;100075.00;4906060;28;101702;-83
2022/07/30 00:59:12;;;;;;;10.65;9.57;;;;;;;21.63;49.26;100080.09;4904514;28;101572;-83
2022/07/30 01:01:38;;;;;;;11.05;10.25;;;;;;;21.57;49.35;100068.09;4913831;28;97195;-83
2022/07/30 01:04:10;;;;;;;10.73;9.70;;;;;;;21.50;49.55;100060.72;4914576;28;97089;-83
2022/07/30 01:06:36;;;;;;;11.10;9.48;;;;;;;21.48;49.59;100053.69;4900853;28;101803;-83
2022/07/30 01:09:01;;;;;;;11.13;10.23;;;;;;;21.59;49.51;100070.66;4899856;28;101580;-84
2022/07/30 01:11:32;;;;;;;10.75;9.85;;;;;;;21.43;49.47;100047.06;4914632;28;96821;-82
2022/07/30 01:13:57;;;;;;;10.67;9.70;;;;;;;21.52;49.51;100059.63;4903500;28;98291;-82
2022/07/30 01:16:23;;;;;;;10.38;9.57;;;;;;;21.57;49.50;100069.94;4902594;28;100200;-82
2022/07/30 01:21:37;;;;;;;10.57;9.65;;;;;;;21.52;49.35;100067.63;4898796;28;96946;-82
2022/07/30 01:24:16;;;;;;;10.80;9.90;;;;;;;21.41;49.52;100041.84;4882199;28;97338;-82
2022/07/30 01:26:41;;;;;;;11.32;10.20;;;;;;;21.52;49.35;100072.97;4914405;28;98434;-82
2022/07/30 01:29:08;;;;;;;12.05;10.85;;;;;;;21.50;49.35;100069.59;4914652;28;97302;-82
2022/07/30 01:31:34;;;;;;;11.07;10.15;;;;;;;21.53;49.38;100055.16;4894738;28;96941;-82
2022/07/30 01:34:00;;;;;;;12.65;9.82;;;;;;;21.46;49.58;100065.47;4897115;28;97127;-82
2022/07/30 01:36:26;;;;;;;10.73;9.75;;;;;;;21.46;49.58;100050.31;4913520;28;97473;-82
2022/07/30 01:38:52;;;;;;;11.35;10.07;;;;;;;21.43;49.63;100052.38;4881562;28;101169;-82
2022/07/30 01:41:18;;;;;;;11.02;10.00;;;;;;;21.38;49.74;100051.91;4881840;28;96863;-82
2022/07/30 01:43:44;;;;;;;10.32;9.35;;;;;;;21.43;49.88;100055.06;4881472;28;98296;-82
2022/07/30 01:46:10;;;;;;;10.32;9.60;;;;;;;21.43;49.67;100042.56;4897080;28;101250;-82
2022/07/30 01:48:41;;;;;;;11.30;10.27;;;;;;;21.48;49.74;100053.69;4896071;28;101068;-82
2022/07/30 01:51:10;;;;;;;12.48;9.43;;;;;;;21.40;50.01;100047.31;4913770;28;96956;-83
2022/07/30 01:53:37;;;;;;;10.63;9.60;;;;;;;21.38;49.91;100042.13;4880812;28;97052;-82
2022/07/30 01:56:04;;;;;;;11.20;10.30;;;;;;;21.31;50.10;100040.88;4894344;28;97805;-82
2022/07/30 01:58:35;;;;;;;10.65;9.55;;;;;;;21.30;50.38;100038.34;4876962;28;101543;-82
2022/07/30 02:01:22;;;;;;;11.90;10.70;;;;;;;21.29;50.19;100032.16;4897531;28;97116;-82
2022/07/30 02:03:48;;;;;;;11.75;10.65;;;;;;;21.32;50.29;100036.38;4896577;28;97382;-83
2022/07/30 02:06:21;;;;;;;11.75;10.55;;;;;;;21.35;50.23;100036.13;4896772;28;101463;-83
2022/07/30 02:08:54;;;;;;;10.93;10.23;;;;;;;21.29;50.08;100021.47;4874225;28;101324;-83
2022/07/30 02:14:25;;;;;;;10.40;9.60;;;;;;;21.34;50.18;100037.13;4913682;28;97027;-82
2022/07/30 02:16:57;;;;;;;11.32;10.05;;;;;;;21.33;50.30;100038.94;4894029;28;98323;-83
2022/07/30 02:19:32;;;;;;;10.65;9.95;;;;;;;21.30;50.30;100039.19;4884827;28;101303;-83
2022/07/30 02:22:07;;;;;;;11.07;9.93;;;;;;;21.21;50.24;100014.13;4878359;28;97842;-83
2022/07/30 02:24:36;;;;;;;10.68;9.77;;;;;;;21.28;50.23;100035.81;4883924;28;96951;-82
2022/07/30 02:27:11;;;;;;;10.70;9.50;;;;;;;21.28;50.46;100035.81;4896476;28;98478;-83
2022/07/30 02:29:37;;;;;;;10.27;9.38;;;;;;;21.20;50.39;100025.75;4881953;28;101758;-83
2022/07/30 02:32:05;;;;;;;10.30;9.60;;;;;;;21.24;50.37;100031.69;4894726;28;97159;-83
2022/07/30 02:34:32;;;;;;;10.00;9.20;;;;;;;21.18;50.49;100022.38;4901679;28;97436;-82
2022/07/30 02:36:59;;;;;;;9.95;9.20;;;;;;;21.15;50.32;100006.63;4889426;28;100400;-83
2022/07/30 02:39:27;;;;;;;10.82;9.70;;;;;;;21.22;50.27;100030.97;4878596;28;99890;-83
2022/07/30 02:41:53;;;;;;;12.57;11.13;;;;;;;21.22;50.30;100018.47;4887403;28;97098;-83
2022/07/30 02:44:20;;;;;;;10.93;10.15;;;;;;;21.14;50.56;100012.06;4881455;28;97657;-82
2022/07/30 02:46:47;;;;;;;10.13;9.48;;;;;;;21.20;50.51;100014.22;4880703;28;102029;-82
2022/07/30 02:49:28;;;;;;;10.55;9.73;;;;;;;21.18;50.52;100013.53;4908688;28;98006;-82
2022/07/30 02:51:55;;;;;;;10.95;9.98;;;;;;;21.02;50.61;99984.59;4896859;28;98430;-82
2022/07/30 02:54:21;;;;;;;10.88;10.07;;;;;;;21.11;50.73;99999.00;4899388;28;96842;-82
2022/07/30 02:56:48;;;;;;;12.15;10.30;;;;;;;21.16;50.58;100000.31;4894204;28;101090;-83
2022/07/30 02:59:15;;;;;;;11.95;9.95;;;;;;;21.13;50.62;99997.06;4896723;28;100887;-83
2022/07/30 03:01:41;;;;;;;11.32;10.38;;;;;;;21.06;50.73;99993.19;4896252;28;97256;-83
2022/07/30 03:04:07;;;;;;;10.65;9.98;;;;;;;21.10;50.67;99997.31;4877485;28;96956;-82
2022/07/30 03:06:34;;;;;;;11.02;10.05;;;;;;;21.05;50.79;99995.00;4892468;28;100971;-82
2022/07/30 03:09:01;;;;;;;13.15;9.70;;;;;;;20.99;50.75;99990.19;4894360;28;99875;-83
2022/07/30 03:11:28;;;;;;;10.73;9.70;;;;;;;21.07;50.72;99995.75;4897352;28;97453;-83
2022/07/30 03:13:55;;;;;;;10.90;10.15;;;;;;;21.09;50.81;100003.59;4897583;28;97080;-83
2022/07/30 03:16:22;;;;;;;11.30;9.77;;;;;;;20.99;50.92;99996.34;4891233;28;101669;-82
2022/07/30 03:18:48;;;;;;;11.23;10.20;;;;;;;20.93;50.93;99978.19;4897030;28;101121;-82
2022/07/30 03:21:16;;;;;;;10.98;9.93;;;;;;;20.98;51.17;99999.16;4906310;28;97245;-83
2022/07/30 03:23:43;;;;;;;10.65;9.85;;;;;;;20.85;51.10;99971.78;4880942;28;96957;-83
2022/07/30 03:26:10;;;;;;;11.65;10.32;;;;;;;20.91;51.15;99993.47;4878218;28;101090;-82
2022/07/30 03:28:38;;;;;;;11.15;9.73;;;;;;;20.99;51.05;99995.53;4879854;28;101354;-83
2022/07/30 03:31:04;;;;;;;10.55;9.52;;;;;;;20.90;51.52;99988.28;4875251;28;96884;-83
2022/07/30 03:33:32;;;;;;;11.75;10.60;;;;;;;20.93;51.16;99996.88;4896596;28;97078;-83
2022/07/30 03:35:58;;;;;;;12.02;11.07;;;;;;;20.90;51.42;99993.63;4896242;28;101366;-82
2022/07/30 03:38:24;;;;;;;13.02;9.02;;;;;;;20.89;51.42;99989.25;4877097;28;101265;-83
2022/07/30 03:40:50;;;;;;;10.63;9.57;;;;;;;20.86;51.35;99984.19;4879421;28;97164;-85
2022/07/30 03:43:16;;;;;;;11.70;10.70;;;;;;;20.88;51.62;99995.56;4880654;28;97374;-82
2022/07/30 03:45:45;;;;;;;11.07;9.93;;;;;;;20.76;51.31;99971.56;4896035;28;100893;-85
2022/07/30 03:48:12;;;;;;;11.80;10.48;;;;;;;20.88;51.48;99988.38;4880946;28;100784;-84
2022/07/30 03:50:42;;;;;;;13.73;10.82;;;;;;;20.87;51.68;99988.53;4881401;28;97185;-83
2022/07/30 03:53:10;;;;;;;12.07;11.07;;;;;;;20.91;51.55;99989.97;4884005;28;96877;-84
2022/07/30 03:55:55;;;;;;;13.80;10.70;;;;;;;20.93;51.58;99990.69;4912544;28;99026;-83
2022/07/30 03:58:51;;;;;;;11.90;10.75;;;;;;;20.87;51.57;99970.69;4889936;28;99813;-83
2022/07/30 04:01:17;;;;;;;11.93;11.02;;;;;;;20.91;51.54;99980.13;4900073;28;96931;-83
2022/07/30 04:03:43;;;;;;;11.05;9.98;;;;;;;20.91;51.53;99979.28;4880560;28;97030;-82
2022/07/30 04:06:09;;;;;;;11.18;10.15;;;;;;;20.92;51.58;99976.50;4895842;28;100907;-83
2022/07/30 04:08:35;;;;;;;11.27;10.35;;;;;;;20.92;51.56;99975.66;4895876;28;101178;-82
2022/07/30 04:11:01;;;;;;;11.50;10.45;;;;;;;21.00;51.56;99978.53;4875842;28;96639;-82
2022/07/30 04:13:58;;;;;;;10.85;9.95;;;;;;;20.95;51.23;99970.91;4898767;28;97706;-82
2022/07/30 04:16:48;;;;;;;10.40;9.32;;;;;;;20.99;51.63;99972.34;4909925;28;100815;-82
2022/07/30 04:19:53;;;;;;;11.63;10.68;;;;;;;20.96;51.76;99961.09;4899616;28;101659;-82
2022/07/30 04:22:22;;;;;;;11.60;10.80;;;;;;;20.97;51.74;99958.31;4870248;28;96953;-83
2022/07/30 04:24:48;;;;;;;11.30;10.40;;;;;;;20.91;51.68;99964.13;4894368;28;98505;-83
2022/07/30 04:27:14;;;;;;;10.93;10.05;;;;;;;20.98;51.58;99970.66;4906595;28;98367;-83
2022/07/30 04:29:40;;;;;;;11.52;10.32;;;;;;;21.01;51.61;99975.75;4882616;28;101338;-83
2022/07/30 04:32:08;;;;;;;11.15;10.38;;;;;;;21.07;51.55;99974.38;4899664;28;96759;-83
2022/07/30 04:34:34;;;;;;;11.23;10.32;;;;;;;20.99;51.49;99975.00;4899140;28;96825;-83
2022/07/30 04:37:02;;;;;;;11.30;10.52;;;;;;;21.05;51.55;99975.50;4906535;28;100159;-82
2022/07/30 04:39:28;;;;;;;11.57;10.73;;;;;;;21.05;51.38;99978.16;4900069;28;100097;-83
2022/07/30 04:41:54;;;;;;;11.75;10.05;;;;;;;21.06;51.37;99982.50;4910654;28;97129;-83
2022/07/30 04:44:31;;;;;;;11.18;10.23;;;;;;;21.07;51.46;99987.72;4897359;28;97017;-84
2022/07/30 04:47:16;;;;;;;11.57;10.73;;;;;;;21.06;51.34;99988.72;4899104;28;97113;-83
2022/07/30 04:49:54;;;;;;;16.48;10.77;;;;;;;21.05;51.53;99980.81;4899872;28;101535;-83
2022/07/30 04:52:20;;;;;;;10.60;9.73;;;;;;;21.06;51.40;99999.38;4914291;28;97006;-82
2022/07/30 04:54:51;;;;;;;12.18;10.77;;;;;;;21.16;51.47;100000.31;4889320;28;96932;-83
2022/07/30 04:57:18;;;;;;;22.38;11.65;;;;;;;21.22;51.50;99999.78;4907331;28;101589;-83
2022/07/30 04:59:43;;;;;;;11.98;10.98;;;;;;;21.19;51.44;99991.19;4898571;28;101415;-83
2022/07/30 05:02:10;;;;;;;11.45;10.65;;;;;;;21.26;51.32;99976.34;4898669;28;96913;-83
2022/07/30 05:04:36;;;;;;;11.85;10.75;;;;;;;21.31;51.08;99995.50;4899132;28;97084;-82
2022/07/30 05:07:02;;;;;;;11.25;10.50;;;;;;;21.12;51.07;99966.84;4881767;28;101494;-83
2022/07/30 05:09:29;;;;;;;11.50;10.52;;;;;;;21.30;50.89;99996.50;4897424;28;100260;-82
2022/07/30 05:11:56;;;;;;;11.70;10.90;;;;;;;21.17;51.36;99977.97;4894568;28;97482;-82
2022/07/30 05:14:22;;;;;;;11.18;10.32;;;;;;;21.27;51.25;99987.91;4913446;28;97403;-83
2022/07/30 05:16:48;;;;;;;11.10;10.30;;;;;;;21.26;51.17;99973.69;4897383;28;100830;-82
2022/07/30 05:19:14;;;;;;;11.07;10.27;;;;;;;21.31;50.83;99982.16;4895653;28;101177;-82
2022/07/30 05:21:39;;;;;;;11.38;10.50;;;;;;;21.37;51.02;100000.34;4865291;28;96910;-82
2022/07/30 05:24:05;;;;;;;10.57;9.70;;;;;;;21.38;50.92;100003.88;4905960;28;97011;-82
2022/07/30 05:26:40;;;;;;;11.23;10.20;;;;;;;21.42;50.60;100005.31;4898401;28;101759;-83
2022/07/30 05:29:08;;;;;;;11.63;10.68;;;;;;;21.39;50.85;100009.09;4883084;28;100993;-82
2022/07/30 05:31:46;;;;;;;11.68;10.75;;;;;;;21.50;50.40;100010.00;4896656;28;97294;-82
2022/07/30 05:34:12;;;;;;;11.25;10.35;;;;;;;21.39;50.93;100014.44;4878382;28;97197;-82
2022/07/30 05:36:43;;;;;;;11.55;10.65;;;;;;;21.25;50.82;100006.69;4897650;28;101816;-83
2022/07/30 05:39:10;;;;;;;11.60;10.60;;;;;;;21.14;50.93;100010.25;4898065;28;101023;-82
2022/07/30 05:41:51;;;;;;;10.23;9.47;;;;;;;21.07;51.11;100006.41;4910283;28;97185;-82
2022/07/30 05:44:31;;;;;;;10.82;10.00;;;;;;;21.13;51.11;100005.06;4900172;28;96990;-82
2022/07/30 05:46:57;;;;;;;11.18;10.13;;;;;;;21.16;51.32;100007.47;4896995;28;101540;-82
2022/07/30 05:49:22;;;;;;;11.30;10.55;;;;;;;21.14;51.28;99993.41;4894975;28;101181;-82
2022/07/30 05:51:48;;;;;;;11.02;10.10;;;;;;;21.31;50.88;99987.50;4880220;28;97506;-82
2022/07/30 05:54:14;;;;;;;10.60;9.57;;;;;;;21.33;50.83;100014.06;4897467;28;97019;-82
2022/07/30 05:57:09;;;;;;;11.45;10.40;;;;;;;21.29;51.15;100005.44;4865107;28;97393;-83
2022/07/30 05:59:36;;;;;;;11.57;10.65;;;;;;;21.24;51.00;99995.19;4878881;28;101582;-83
2022/07/30 06:02:11;;;;;;;11.52;10.32;;;;;;;21.34;50.89;99999.75;4884902;28;97303;-83
2022/07/30 06:04:55;;;;;;;11.43;10.45;;;;;;;21.31;51.16;99992.84;4905891;28;97263;-82
2022/07/30 06:07:21;;;;;;;11.25;10.50;;;;;;;21.34;51.06;99995.25;4886179;28;101146;-83
2022/07/30 06:09:48;;;;;;;11.38;10.57;;;;;;;21.27;50.97;99983.41;4895137;28;101065;-83
2022/07/30 06:12:14;;;;;;;11.35;10.60;;;;;;;21.23;50.84;99982.81;4894302;28;98693;-83
2022/07/30 06:14:41;;;;;;;11.73;10.95;;;;;;;21.25;51.04;99978.19;4892838;28;98507;-82
2022/07/30 06:17:09;;;;;;;12.32;11.18;;;;;;;21.29;51.03;99988.59;4894880;28;100793;-83
2022/07/30 06:20:04;;;;;;;12.30;11.30;;;;;;;21.30;51.13;99985.81;4899865;28;98749;-82
2022/07/30 06:22:38;;;;;;;12.68;11.70;;;;;;;21.30;51.24;99982.31;4896478;28;96919;-82
2022/07/30 06:25:13;;;;;;;11.77;11.07;;;;;;;21.21;51.27;99960.75;4912871;28;97025;-82
2022/07/30 06:27:39;;;;;;;11.60;10.70;;;;;;;21.30;51.33;99979.63;4880914;28;101186;-82
2022/07/30 06:30:07;;;;;;;11.10;10.25;;;;;;;21.29;51.26;99988.59;4881759;28;101408;-82
2022/07/30 06:32:33;;;;;;;12.20;11.30;;;;;;;21.20;51.33;99974.19;4894454;28;98066;-83
2022/07/30 06:35:00;;;;;;;11.68;10.77;;;;;;;21.29;50.87;99976.09;4895399;28;97842;-83
2022/07/30 06:37:26;;;;;;;12.63;11.23;;;;;;;21.35;51.00;99986.28;4878279;28;100828;-83
2022/07/30 06:39:52;;;;;;;11.40;10.55;;;;;;;21.21;51.22;99955.41;4875287;28;101422;-83
2022/07/30 06:42:17;;;;;;;11.68;10.65;;;;;;;21.33;51.32;99982.88;4893404;28;96969;-82
2022/07/30 06:45:02;;;;;;;11.68;10.65;;;;;;;21.35;51.35;99974.72;4891966;28;96849;-83
2022/07/30 06:47:43;;;;;;;12.60;11.20;;;;;;;21.31;50.93;99965.28;4895087;28;101447;-82
2022/07/30 06:50:08;;;;;;;15.18;11.68;;;;;;;21.35;50.95;99978.28;4907627;28;101631;-83
2022/07/30 06:52:34;;;;;;;12.00;11.00;;;;;;;21.51;50.88;99982.34;4894070;28;96815;-82
2022/07/30 06:55:00;;;;;;;13.85;12.88;;;;;;;21.51;50.89;99977.00;4889263;28;97030;-84
2022/07/30 06:57:33;;;;;;;12.30;11.32;;;;;;;21.49;50.75;99979.78;4902692;28;101508;-84
2022/07/30 07:00:00;;;;;;;12.75;11.70;;;;;;;21.56;50.74;99977.47;4878738;28;101181;-83
2022/07/30 07:02:32;;;;;;;11.95;10.95;;;;;;;21.58;50.88;99980.81;4884151;28;96892;-83
2022/07/30 07:05:12;;;;;;;11.98;10.98;;;;;;;21.57;50.53;99969.28;4898461;28;96929;-84
2022/07/30 07:07:40;;;;;;;12.13;11.20;;;;;;;21.68;50.62;99987.09;4881290;28;100363;-82
2022/07/30 07:10:08;;;;;;;15.48;10.80;;;;;;;21.66;50.53;99981.84;4877869;28;102208;-83
2022/07/30 07:13:08;;;;;;;11.98;10.93;;;;;;;21.73;50.46;99987.53;4895417;28;96903;-83
2022/07/30 07:15:35;;;;;;;11.52;10.55;;;;;;;21.77;50.27;99982.78;4881754;28;97407;-83
2022/07/30 07:18:00;;;;;;;11.60;10.65;;;;;;;21.81;50.25;99989.53;4879326;28;100823;-83
2022/07/30 07:20:37;;;;;;;12.02;10.57;;;;;;;21.90;50.35;99984.25;4901200;28;101445;-84
2022/07/30 07:23:06;;;;;;;11.32;10.27;;;;;;;21.85;50.77;99970.44;4883863;28;97000;-83
2022/07/30 07:25:31;;;;;;;11.90;10.90;;;;;;;21.96;50.17;99990.03;4897567;28;97017;-83
2022/07/30 07:27:57;;;;;;;11.00;10.30;;;;;;;21.96;50.20;99990.88;4899555;28;101327;-82
2022/07/30 07:30:22;;;;;;;15.30;10.70;;;;;;;21.91;50.54;99974.41;4881371;28;101324;-84
2022/07/30 07:32:48;;;;;;;11.73;10.73;;;;;;;22.05;50.39;99978.53;4900119;28;97039;-84
2022/07/30 07:35:14;;;;;;;11.10;10.13;;;;;;;22.15;50.41;99980.28;4919065;28;96890;-83
2022/07/30 07:37:43;;;;;;;11.30;10.13;;;;;;;22.18;49.85;99984.53;4899817;28;100867;-82
2022/07/30 07:40:17;;;;;;;12.10;10.63;;;;;;;22.21;50.04;99986.94;4882174;28;100888;-83
2022/07/30 07:42:43;;;;;;;12.02;11.05;;;;;;;22.23;49.93;99979.66;4883765;28;96906;-86
2022/07/30 07:45:09;;;;;;;11.98;10.65;;;;;;;22.34;50.01;99984.91;4887983;28;97719;-83
2022/07/30 07:47:45;;;;;;;14.45;11.02;;;;;;;22.34;49.96;99976.88;4912180;28;99913;-82
2022/07/30 07:50:17;;;;;;;12.18;11.27;;;;;;;22.37;49.96;99983.78;4882428;28;102082;-82
2022/07/30 07:52:42;;;;;;;11.85;10.65;;;;;;;22.37;50.13;99973.91;4885641;28;96800;-82
2022/07/30 07:55:09;;;;;;;11.55;10.65;;;;;;;22.22;49.85;99953.03;4904982;28;97023;-84
2022/07/30 07:57:42;;;;;;;11.25;10.30;;;;;;;22.32;50.28;99975.31;4898238;28;101573;-83
2022/07/30 08:00:11;;;;;;;11.02;10.23;;;;;;;22.34;50.36;99976.00;4899227;28;100656;-83
2022/07/30 08:02:44;;;;;;;11.60;10.60;;;;;;;22.47;50.05;99973.09;4905107;28;96975;-82
2022/07/30 08:05:11;;;;;;;12.63;11.07;;;;;;;22.54;50.23;99980.44;4900466;28;96912;-83
2022/07/30 08:07:40;;;;;;;13.02;11.35;;;;;;;22.50;50.30;99960.28;4895831;28;98013;-83
2022/07/30 08:10:20;;;;;;;10.98;9.98;;;;;;;22.50;50.43;99964.81;4893421;28;97979;-83
2022/07/30 08:13:08;;;;;;;11.30;10.23;;;;;;;22.58;50.29;99976.50;4912971;28;97048;-83
2022/07/30 08:15:34;;;;;;;11.40;10.30;;;;;;;22.59;50.31;99982.69;4898890;28;99392;-82
2022/07/30 08:18:31;;;;;;;12.15;10.73;;;;;;;22.62;50.44;99973.56;4911534;28;99821;-82
2022/07/30 08:21:10;;;;;;;13.23;10.75;;;;;;;22.53;50.56;99960.00;4902193;28;101703;-83
2022/07/30 08:23:36;;;;;;;13.48;10.95;;;;;;;22.63;50.65;99975.22;4878388;28;97318;-83
2022/07/30 08:26:01;;;;;;;12.15;11.00;;;;;;;22.53;50.73;99962.69;4896705;28;97302;-83
2022/07/30 08:28:27;;;;;;;11.80;11.00;;;;;;;22.56;50.84;99980.28;4878746;28;101337;-82
2022/07/30 08:30:52;;;;;;;11.52;10.50;;;;;;;22.41;51.09;99966.47;4905135;28;102427;-83
2022/07/30 08:33:18;;;;;;;11.48;10.13;;;;;;;22.42;51.29;99972.66;4897021;28;97245;-83
2022/07/30 08:35:44;;;;;;;14.75;10.82;;;;;;;22.42;51.27;99969.97;4912746;28;98233;-82
2022/07/30 08:38:11;;;;;;;10.95;10.15;;;;;;;22.50;51.00;99965.63;4898433;28;100958;-84
2022/07/30 08:40:38;;;;;;;11.55;10.75;;;;;;;22.68;50.88;99975.66;4896538;28;96958;-84
2022/07/30 08:43:05;;;;;;;17.67;11.52;;;;;;;22.76;50.88;99965.13;4900735;28;97499;-82
2022/07/30 08:45:31;;;;;;;12.65;11.32;;;;;;;22.59;50.94;99962.13;4909719;28;97423;-85
2022/07/30 08:48:03;;;;;;;13.63;11.13;;;;;;;22.72;51.13;99969.03;4892521;28;99504;-82
2022/07/30 08:50:39;;;;;;;12.00;11.00;;;;;;;22.83;51.00;99983.19;4887046;28;100924;-84
2022/07/30 08:53:27;;;;;;;12.55;11.48;;;;;;;22.83;51.06;99969.78;4912587;28;96809;-84
2022/07/30 08:55:53;;;;;;;11.65;10.82;;;;;;;22.95;51.01;99989.28;4899002;28;97520;-83
2022/07/30 08:58:28;;;;;;;12.95;11.38;;;;;;;22.89;51.11;99971.03;4913203;28;101272;-84
2022/07/30 09:00:53;;;;;;;11.77;10.88;;;;;;;22.94;50.99;99987.53;4896638;28;102749;-84
2022/07/30 09:03:19;;;;;;;13.18;11.80;;;;;;;22.95;51.38;99983.03;4912440;28;97320;-84
2022/07/30 09:05:45;;;;;;;11.52;10.52;;;;;;;22.90;52.00;99993.31;4901768;28;97236;-84
2022/07/30 09:08:11;;;;;;;12.38;10.57;;;;;;;22.71;52.28;99989.59;4879079;28;101355;-83
2022/07/30 09:10:37;;;;;;;11.90;10.88;;;;;;;22.75;52.28;99987.53;4892639;28;99451;-83
2022/07/30 09:13:02;;;;;;;11.70;10.70;;;;;;;22.57;52.55;99981.97;4903072;28;97332;-83
2022/07/30 09:15:28;;;;;;;11.50;10.60;;;;;;;22.56;52.34;99999.00;4905237;28;99004;-83
2022/07/30 09:18:01;;;;;;;12.13;11.15;;;;;;;22.44;52.70;99990.25;4890912;28;100101;-83
2022/07/30 09:20:33;;;;;;;11.88;10.88;;;;;;;22.54;52.71;99999.16;4896659;28;101574;-84
2022/07/30 09:23:01;;;;;;;11.93;10.82;;;;;;;22.70;52.72;100003.97;4891828;28;97383;-83
2022/07/30 09:25:47;;;;;;;12.40;11.30;;;;;;;22.74;53.35;100012.56;4906356;28;96878;-85
2022/07/30 09:28:33;;;;;;;19.13;12.10;;;;;;;22.55;54.72;99992.00;4904475;28;97749;-84
2022/07/30 09:31:20;;;;;;;11.80;10.90;;;;;;;22.61;55.02;100012.84;4881715;28;97557;-85
2022/07/30 09:34:22;;;;;;;14.60;11.25;;;;;;;22.56;56.49;100021.25;4895897;28;96881;-85
2022/07/30 09:37:23;;;;;;;11.50;10.52;;;;;;;22.45;56.61;100018.69;4911266;28;96915;-83
2022/07/30 09:40:21;;;;;;;10.93;10.05;;;;;;;22.23;57.56;100006.38;4886725;28;97607;-83
2022/07/30 09:43:12;;;;;;;11.82;11.00;;;;;;;22.24;57.74;100018.75;4888915;28;97296;-82
2022/07/30 09:45:51;;;;;;;11.40;10.40;;;;;;;22.26;58.56;100029.31;4896639;28;97464;-83
2022/07/30 09:48:22;;;;;;;11.15;10.25;;;;;;;22.19;58.88;100012.94;4879088;28;96773;-83
2022/07/30 09:50:49;;;;;;;12.25;11.02;;;;;;;22.20;59.11;100025.34;4898340;28;101340;-82
2022/07/30 09:53:14;;;;;;;11.93;11.05;;;;;;;22.29;59.01;100029.06;4882551;28;101291;-80
2022/07/30 09:55:41;;;;;;;11.90;10.80;;;;;;;22.12;59.73;99996.59;4883006;28;96928;-81
2022/07/30 09:58:07;;;;;;;11.55;10.65;;;;;;;22.27;59.72;100013.13;4896061;28;96824;-81
2022/07/30 10:00:35;;;;;;;12.50;11.25;;;;;;;22.36;59.27;100014.16;4889020;28;101832;-81
2022/07/30 10:03:25;;;;;;;11.27;10.48;;;;;;;22.29;59.46;100010.34;4880540;28;101643;-82
2022/07/30 10:06:33;;;;;;;12.48;11.38;;;;;;;22.15;60.58;100000.81;4884446;28;98676;-81
2022/07/30 10:09:01;;;;;;;11.63;10.80;;;;;;;22.25;60.97;100020.47;4895349;28;97006;-81
2022/07/30 10:11:29;;;;;;;11.52;10.65;;;;;;;22.13;61.45;100027.66;4894385;28;101317;-81
2022/07/30 10:13:58;;;;;;;11.90;10.90;;;;;;;21.91;61.96;100001.13;4879551;28;102336;-81
2022/07/30 10:16:25;;;;;;;12.57;11.68;;;;;;;21.91;62.92;100007.31;4895320;28;98322;-81
2022/07/30 10:18:54;;;;;;;12.52;11.45;;;;;;;;;;4873848;28;97953;-82
2022/07/30 10:21:43;;;;;;;12.65;11.65;;;;;;;21.82;62.84;100007.28;4907540;28;97604;-81
2022/07/30 10:24:18;;;;;;;13.43;11.50;;;;;;;21.68;63.08;99984.41;4903605;28;98655;-81
2022/07/30 10:27:03;;;;;;;13.13;12.23;;;;;;;21.79;63.62;99999.53;4893015;28;97571;-82
2022/07/30 10:29:47;;;;;;;12.82;11.85;;;;;;;21.80;63.75;99995.88;4911026;28;96865;-82
2022/07/30 10:32:12;;;;;;;14.07;12.88;;;;;;;21.66;64.09;99979.19;4905850;28;101195;-81
2022/07/30 10:34:38;;;;;;;14.20;13.10;;;;;;;21.81;64.06;100003.72;4894034;28;100978;-81
2022/07/30 10:37:05;;;;;;;14.07;12.88;;;;;;;21.77;64.25;99991.63;4887291;28;98016;-81
2022/07/30 10:39:36;;;;;;;13.65;12.70;;;;;;;21.85;64.97;99994.50;4870670;28;96997;-84
2022/07/30 10:42:17;;;;;;;14.18;12.88;;;;;;;21.75;65.41;100000.75;4877851;28;101724;-84
2022/07/30 10:44:52;;;;;;;14.00;12.77;;;;;;;21.82;65.10;99981.41;4910393;28;98200;-84
2022/07/30 10:47:18;;;;;;;13.30;12.10;;;;;;;21.91;65.55;99993.13;4900558;28;96765;-83
2022/07/30 10:50:11;;;;;;;12.85;11.85;;;;;;;22.04;65.97;99998.22;4879053;28;98033;-83
2022/07/30 10:52:51;;;;;;;17.98;12.65;;;;;;;22.17;65.28;99990.00;4891059;28;98311;-84
2022/07/30 10:55:18;;;;;;;13.65;12.30;;;;;;;22.32;64.88;99986.00;4883874;28;101187;-86
2022/07/30 10:58:01;;;;;;;12.82;11.65;;;;;;;22.38;65.40;99990.81;4870663;28;96889;-83
2022/07/30 11:00:29;;;;;;;13.13;12.23;;;;;;;22.42;65.43;99994.06;4870132;28;96834;-83
2022/07/30 11:03:11;;;;;;;14.02;12.88;;;;;;;22.35;65.27;99986.56;4874730;28;101832;-85
2022/07/30 11:05:37;;;;;;;13.40;12.20;;;;;;;22.36;65.35;99980.22;4887537;28;102019;-83
2022/07/30 11:08:32;;;;;;;13.80;12.68;;;;;;;22.38;64.84;99985.47;4887802;28;96798;-84
2022/07/30 11:10:57;;;;;;;13.55;12.23;;;;;;;22.30;64.36;99986.13;4871771;28;97343;-84
2022/07/30 11:13:59;;;;;;;13.18;12.27;;;;;;;22.13;64.70;99992.91;4880101;28;97822;-85
2022/07/30 11:16:30;;;;;;;13.02;11.93;;;;;;;22.12;64.79;99996.59;4859149;28;97567;-85
2022/07/30 11:19:23;;;;;;;14.43;13.07;;;;;;;22.23;64.79;99989.50;4888170;28;99337;-83
2022/07/30 11:22:21;;;;;;;13.65;12.65;;;;;;;22.29;64.74;99979.09;4875034;28;96788;-85
2022/07/30 11:24:46;;;;;;;13.43;12.32;;;;;;;22.39;64.66;99984.47;4890289;28;97837;-85
2022/07/30 11:27:37;;;;;;;13.63;12.57;;;;;;;22.26;65.32;99973.19;4887904;28;97990;-86
2022/07/30 11:30:28;;;;;;;13.00;12.20;;;;;;;22.23;65.13;99971.63;4876575;28;96816;-84
2022/07/30 11:33:16;;;;;;;13.25;12.35;;;;;;;22.08;65.60;99976.47;4895211;28;96781;-83
2022/07/30 11:35:42;;;;;;;13.25;12.35;;;;;;;22.06;66.02;99970.41;4898965;28;97867;-84
2022/07/30 11:38:14;;;;;;;13.32;12.13;;;;;;;22.01;66.64;99969.94;4896019;28;98010;-84